BAW19N EGLL-TXKF
Flight info
| Callsign | BAW19N |
|---|---|
| Flight time | N/A |
| Altitude | 38000 |
| Route | GOGSI2G GOGSI N621 EVTES N514 ADKIK DCT JOZMA DCT LULOX/M083F380 DCT BEDRA DCT 4730N02000W 44N030W 41N040W/M083F400 3730N05000W 35N060W DCT BALOO MOMOM1 |
| Aircraft | B772/H-SDE1E3FGHIJ3J5J6M1M2P2RWXYZ/LB1D1 |
Departure
| Time | 2026-05-04 06:52 |
|---|---|
| Airport | London Heathrow Airport (EGLL) |
Arrival
| Time | N/A |
|---|---|
| Airport | L.F. Wade International Airport (TXKF) |
| Time | Latitude | Longitude | Altitude | Speed | Heading |
|---|---|---|---|---|---|
| 2026-05-04 06:25 | 51.47394 | -0.46244 | 90 ft | 0 kts | 236° |
| 2026-05-04 06:29 | 51.47393 | -0.46244 | 90 ft | 0 kts | 236° |
| 2026-05-04 06:30 | 51.47394 | -0.46244 | 90 ft | 0 kts | 236° |
| 2026-05-04 06:40 | 51.47394 | -0.46095 | 94 ft | 0 kts | 325° |
| 2026-05-04 06:42 | 51.47398 | -0.46099 | 90 ft | 5 kts | 326° |
| 2026-05-04 06:44 | 51.47514 | -0.45762 | 92 ft | 11 kts | 99° |
| 2026-05-04 06:44 | 51.47507 | -0.45628 | 94 ft | 13 kts | 91° |
| 2026-05-04 06:44 | 51.47507 | -0.45480 | 94 ft | 14 kts | 89° |
| 2026-05-04 06:45 | 51.47508 | -0.45319 | 94 ft | 15 kts | 89° |
| 2026-05-04 06:45 | 51.47509 | -0.45146 | 94 ft | 16 kts | 89° |
| 2026-05-04 06:45 | 51.47510 | -0.44964 | 94 ft | 17 kts | 90° |
| 2026-05-04 06:45 | 51.47511 | -0.44771 | 94 ft | 18 kts | 89° |
| 2026-05-04 06:46 | 51.47504 | -0.44573 | 93 ft | 18 kts | 94° |
| 2026-05-04 06:46 | 51.47504 | -0.44373 | 93 ft | 18 kts | 89° |
| 2026-05-04 06:46 | 51.47504 | -0.44174 | 93 ft | 18 kts | 90° |
| 2026-05-04 06:46 | 51.47505 | -0.43974 | 93 ft | 18 kts | 89° |
| 2026-05-04 06:48 | 51.46924 | -0.43752 | 92 ft | 14 kts | 179° |
| 2026-05-04 06:48 | 51.46828 | -0.43763 | 93 ft | 13 kts | 201° |
| 2026-05-04 06:49 | 51.46774 | -0.43704 | 95 ft | 11 kts | 100° |
| 2026-05-04 06:50 | 51.46531 | -0.43435 | 95 ft | 11 kts | 179° |
| 2026-05-04 06:51 | 51.46494 | -0.43516 | 92 ft | 11 kts | 269° |
| 2026-05-04 06:51 | 51.46494 | -0.43882 | 90 ft | 68 kts | 270° |
| 2026-05-04 06:51 | 51.46491 | -0.45067 | 93 ft | 139 kts | 269° |
| 2026-05-04 06:51 | 51.46484 | -0.46880 | 269 ft | 177 kts | 271° |
| 2026-05-04 06:52 | 51.46466 | -0.48880 | 1052 ft | 178 kts | 270° |
| 2026-05-04 06:52 | 51.46439 | -0.50882 | 1516 ft | 189 kts | 270° |
| 2026-05-04 06:52 | 51.46412 | -0.53104 | 1760 ft | 215 kts | 270° |
| 2026-05-04 06:52 | 51.46382 | -0.55646 | 1991 ft | 240 kts | 270° |
| 2026-05-04 06:53 | 51.46348 | -0.58416 | 2468 ft | 253 kts | 270° |
| 2026-05-04 06:53 | 51.46313 | -0.61264 | 3131 ft | 258 kts | 269° |
| 2026-05-04 06:53 | 51.46121 | -0.64136 | 3757 ft | 262 kts | 258° |
| 2026-05-04 06:53 | 51.45710 | -0.66991 | 4465 ft | 263 kts | 258° |
| 2026-05-04 06:54 | 51.45445 | -0.69887 | 5230 ft | 263 kts | 266° |
| 2026-05-04 06:54 | 51.45390 | -0.72824 | 5952 ft | 265 kts | 269° |
| 2026-05-04 06:54 | 51.45377 | -0.75799 | 6570 ft | 268 kts | 269° |
| 2026-05-04 06:54 | 51.45358 | -0.78811 | 7174 ft | 271 kts | 268° |
| 2026-05-04 06:55 | 51.45314 | -0.81832 | 7755 ft | 271 kts | 263° |
| 2026-05-04 06:55 | 51.44651 | -0.84637 | 8107 ft | 276 kts | 229° |
| 2026-05-04 06:55 | 51.43110 | -0.86413 | 8659 ft | 273 kts | 205° |
| 2026-05-04 06:55 | 51.41392 | -0.87782 | 9079 ft | 279 kts | 209° |
| 2026-05-04 06:56 | 51.39671 | -0.89229 | 9677 ft | 279 kts | 207° |
| 2026-05-04 06:57 | 51.26625 | -1.02714 | 12950 ft | 350 kts | 212° |
| 2026-05-04 06:58 | 51.24568 | -1.04821 | 13770 ft | 354 kts | 212° |
| 2026-05-04 06:58 | 51.22481 | -1.06953 | 14495 ft | 358 kts | 212° |
| 2026-05-04 06:58 | 51.20377 | -1.09105 | 15257 ft | 361 kts | 212° |
| 2026-05-04 06:58 | 51.18253 | -1.11284 | 16004 ft | 364 kts | 212° |
| 2026-05-04 06:59 | 51.16123 | -1.13473 | 16718 ft | 367 kts | 212° |
| 2026-05-04 06:59 | 51.13966 | -1.15689 | 17428 ft | 370 kts | 212° |
| 2026-05-04 06:59 | 51.11812 | -1.17897 | 18110 ft | 374 kts | 212° |
| 2026-05-04 06:59 | 51.09660 | -1.20250 | 18726 ft | 377 kts | 218° |
| 2026-05-04 07:01 | 50.99007 | -1.44056 | 23072 ft | 390 kts | 251° |
| 2026-05-04 07:01 | 50.98283 | -1.48227 | 23607 ft | 394 kts | 253° |
| 2026-05-04 07:02 | 50.97579 | -1.52442 | 24031 ft | 397 kts | 252° |
| 2026-05-04 07:02 | 50.96867 | -1.56702 | 24454 ft | 400 kts | 252° |
| 2026-05-04 07:02 | 50.96145 | -1.60979 | 24890 ft | 403 kts | 252° |
| 2026-05-04 07:02 | 50.95411 | -1.65285 | 25316 ft | 406 kts | 252° |
| 2026-05-04 07:03 | 50.94666 | -1.69622 | 25739 ft | 409 kts | 252° |
| 2026-05-04 07:03 | 50.93912 | -1.73982 | 26164 ft | 412 kts | 251° |
| 2026-05-04 07:03 | 50.93150 | -1.78373 | 26586 ft | 415 kts | 251° |
| 2026-05-04 07:03 | 50.92379 | -1.82800 | 27005 ft | 417 kts | 251° |
| 2026-05-04 07:04 | 50.91604 | -1.87244 | 27430 ft | 420 kts | 251° |
| 2026-05-04 07:04 | 50.90818 | -1.91740 | 27692 ft | 427 kts | 251° |
| 2026-05-04 07:04 | 50.90016 | -1.96313 | 27955 ft | 433 kts | 251° |
| 2026-05-04 07:04 | 50.89207 | -2.00920 | 28395 ft | 435 kts | 251° |
| 2026-05-04 07:05 | 50.88396 | -2.05542 | 28850 ft | 437 kts | 251° |
| 2026-05-04 07:05 | 50.87581 | -2.10189 | 29230 ft | 440 kts | 251° |
| 2026-05-04 07:05 | 50.86759 | -2.14866 | 29592 ft | 443 kts | 251° |
| 2026-05-04 07:05 | 50.85928 | -2.19589 | 29951 ft | 447 kts | 251° |
| 2026-05-04 07:06 | 50.84245 | -2.29116 | 30600 ft | 451 kts | 251° |
| 2026-05-04 07:06 | 50.83407 | -2.33841 | 30884 ft | 454 kts | 251° |
| 2026-05-04 07:06 | 50.82546 | -2.38682 | 31058 ft | 460 kts | 251° |
| 2026-05-04 07:07 | 50.81673 | -2.43577 | 31239 ft | 464 kts | 251° |
| 2026-05-04 07:08 | 50.77036 | -2.77188 | 33159 ft | 473 kts | 258° |
| 2026-05-04 07:09 | 50.76456 | -2.82296 | 33474 ft | 473 kts | 258° |
| 2026-05-04 07:09 | 50.75861 | -2.87432 | 33621 ft | 477 kts | 258° |
| 2026-05-04 07:09 | 50.75253 | -2.92600 | 33874 ft | 478 kts | 258° |
| 2026-05-04 07:09 | 50.74639 | -2.97759 | 34183 ft | 478 kts | 258° |
| 2026-05-04 07:10 | 50.74022 | -3.02913 | 34480 ft | 477 kts | 258° |
| 2026-05-04 07:10 | 50.73405 | -3.08052 | 34755 ft | 477 kts | 258° |
| 2026-05-04 07:12 | 50.69022 | -3.44012 | 36488 ft | 478 kts | 258° |
| 2026-05-04 07:12 | 50.68387 | -3.49149 | 36755 ft | 477 kts | 258° |
| 2026-05-04 07:12 | 50.67750 | -3.54282 | 36996 ft | 477 kts | 258° |
| 2026-05-04 07:12 | 50.67111 | -3.59411 | 37213 ft | 477 kts | 258° |
| 2026-05-04 07:13 | 50.66469 | -3.64538 | 37441 ft | 477 kts | 258° |
| 2026-05-04 07:13 | 50.65825 | -3.69670 | 37660 ft | 477 kts | 258° |
| 2026-05-04 07:13 | 50.65179 | -3.74797 | 37872 ft | 477 kts | 258° |
| 2026-05-04 07:14 | 50.62616 | -3.95518 | 37975 ft | 484 kts | 262° |
| 2026-05-04 07:14 | 50.62306 | -4.00778 | 37975 ft | 480 kts | 265° |
| 2026-05-04 07:15 | 50.61848 | -4.11220 | 37975 ft | 477 kts | 265° |
| 2026-05-04 07:15 | 50.61385 | -4.21605 | 37982 ft | 475 kts | 265° |
| 2026-05-04 07:16 | 50.60878 | -4.32153 | 37977 ft | 474 kts | 265° |
| 2026-05-04 07:16 | 50.60370 | -4.42316 | 37983 ft | 475 kts | 265° |
| 2026-05-04 07:17 | 50.59838 | -4.52702 | 37977 ft | 477 kts | 265° |
| 2026-05-04 07:17 | 50.59296 | -4.63120 | 37980 ft | 478 kts | 265° |
| 2026-05-04 07:18 | 50.58743 | -4.73578 | 37986 ft | 481 kts | 265° |
| 2026-05-04 07:18 | 50.58179 | -4.84076 | 37993 ft | 483 kts | 265° |
| 2026-05-04 07:19 | 50.57603 | -4.94611 | 37993 ft | 484 kts | 265° |
| 2026-05-04 07:19 | 50.57020 | -5.05109 | 37992 ft | 485 kts | 265° |
| 2026-05-04 07:20 | 50.56423 | -5.15677 | 37989 ft | 485 kts | 265° |
| 2026-05-04 07:20 | 50.55817 | -5.26236 | 37985 ft | 485 kts | 265° |
| 2026-05-04 07:22 | 50.53303 | -5.68338 | 37966 ft | 483 kts | 264° |
| 2026-05-04 07:23 | 50.52653 | -5.78835 | 37973 ft | 483 kts | 264° |
| 2026-05-04 07:23 | 50.51992 | -5.89336 | 37969 ft | 483 kts | 264° |
| 2026-05-04 07:24 | 50.51321 | -5.99847 | 37972 ft | 484 kts | 264° |
| 2026-05-04 07:24 | 50.50640 | -6.10373 | 37971 ft | 485 kts | 265° |
| 2026-05-04 07:26 | 50.47801 | -6.52710 | 37971 ft | 489 kts | 264° |
| 2026-05-04 07:27 | 50.47069 | -6.63264 | 37973 ft | 490 kts | 264° |
| 2026-05-04 07:27 | 50.46321 | -6.73905 | 37971 ft | 491 kts | 264° |
| 2026-05-04 07:28 | 50.45563 | -6.84540 | 37973 ft | 491 kts | 264° |
| 2026-05-04 07:28 | 50.44795 | -6.95182 | 37971 ft | 491 kts | 264° |
| 2026-05-04 07:29 | 50.44017 | -7.05825 | 37983 ft | 491 kts | 264° |
| 2026-05-04 07:29 | 50.43227 | -7.16489 | 37984 ft | 493 kts | 264° |
| 2026-05-04 07:30 | 50.42427 | -7.27166 | 37981 ft | 494 kts | 264° |
| 2026-05-04 07:30 | 50.41614 | -7.37873 | 37989 ft | 494 kts | 264° |
| 2026-05-04 07:31 | 50.40792 | -7.48569 | 37988 ft | 495 kts | 264° |
| 2026-05-04 07:33 | 50.37414 | -7.91247 | 38005 ft | 493 kts | 264° |
| 2026-05-04 07:33 | 50.36456 | -8.01882 | 37996 ft | 493 kts | 258° |
| 2026-05-04 07:34 | 50.34798 | -8.12315 | 38000 ft | 494 kts | 256° |
| 2026-05-04 07:34 | 50.33055 | -8.22729 | 38007 ft | 495 kts | 256° |
| 2026-05-04 07:35 | 50.31323 | -8.33174 | 38005 ft | 496 kts | 256° |
| 2026-05-04 07:35 | 50.29601 | -8.43645 | 37999 ft | 497 kts | 256° |
| 2026-05-04 07:36 | 50.27877 | -8.54102 | 38006 ft | 497 kts | 256° |
| 2026-05-04 07:38 | 50.20892 | -8.95808 | 38012 ft | 496 kts | 256° |
| 2026-05-04 07:38 | 50.19121 | -9.06219 | 38013 ft | 496 kts | 256° |
| 2026-05-04 07:39 | 50.17340 | -9.16628 | 38012 ft | 496 kts | 256° |
| 2026-05-04 07:39 | 50.15551 | -9.27019 | 38015 ft | 496 kts | 256° |
| 2026-05-04 07:40 | 50.13751 | -9.37412 | 38017 ft | 496 kts | 256° |
| 2026-05-04 07:40 | 50.11944 | -9.47786 | 38012 ft | 496 kts | 256° |
| 2026-05-04 07:41 | 50.10127 | -9.58159 | 38017 ft | 496 kts | 256° |
| 2026-05-04 07:41 | 50.08298 | -9.68536 | 38017 ft | 496 kts | 256° |
| 2026-05-04 07:42 | 50.06462 | -9.78893 | 38018 ft | 497 kts | 256° |
| 2026-05-04 07:42 | 50.04616 | -9.89248 | 38020 ft | 497 kts | 256° |
| 2026-05-04 07:43 | 50.02760 | -9.99597 | 38023 ft | 497 kts | 256° |
| 2026-05-04 07:43 | 50.00907 | -10.09874 | 38014 ft | 497 kts | 256° |
| 2026-05-04 07:44 | 49.99034 | -10.20198 | 38025 ft | 496 kts | 256° |
| 2026-05-04 07:44 | 49.97151 | -10.30524 | 38027 ft | 496 kts | 255° |
| 2026-05-04 07:45 | 49.95259 | -10.40837 | 38039 ft | 496 kts | 255° |
| 2026-05-04 07:45 | 49.93360 | -10.51132 | 38017 ft | 496 kts | 255° |
| 2026-05-04 07:46 | 49.91450 | -10.61431 | 38027 ft | 496 kts | 255° |
| 2026-05-04 07:46 | 49.89531 | -10.71716 | 38028 ft | 497 kts | 255° |
| 2026-05-04 07:47 | 49.87601 | -10.82010 | 38032 ft | 497 kts | 255° |
| 2026-05-04 07:49 | 49.79777 | -11.23154 | 38039 ft | 498 kts | 255° |
| 2026-05-04 07:49 | 49.77809 | -11.33368 | 38041 ft | 499 kts | 255° |
| 2026-05-04 07:50 | 49.75815 | -11.43655 | 38027 ft | 500 kts | 255° |
| 2026-05-04 07:50 | 49.73809 | -11.53952 | 38044 ft | 500 kts | 255° |
| 2026-05-04 07:51 | 49.71791 | -11.64258 | 38031 ft | 502 kts | 255° |
| 2026-05-04 07:51 | 49.69762 | -11.74563 | 38047 ft | 501 kts | 255° |
| 2026-05-04 07:52 | 49.67723 | -11.84852 | 38047 ft | 500 kts | 255° |
| 2026-05-04 07:52 | 49.65681 | -11.95117 | 38063 ft | 500 kts | 255° |
| 2026-05-04 07:54 | 49.57395 | -12.36209 | 38077 ft | 503 kts | 255° |
| 2026-05-04 07:55 | 49.55294 | -12.46489 | 38082 ft | 503 kts | 255° |
| 2026-05-04 07:55 | 49.53183 | -12.56767 | 38081 ft | 504 kts | 255° |
| 2026-05-04 07:56 | 49.51063 | -12.67035 | 38073 ft | 503 kts | 255° |
| 2026-05-04 07:56 | 49.48934 | -12.77297 | 38083 ft | 504 kts | 255° |
| 2026-05-04 07:57 | 49.46807 | -12.87497 | 38104 ft | 503 kts | 255° |
| 2026-05-04 07:57 | 49.44661 | -12.97733 | 38108 ft | 503 kts | 255° |
| 2026-05-04 07:58 | 49.42858 | -13.06289 | 38085 ft | 502 kts | 255° |
| 2026-05-04 07:58 | 49.40717 | -13.16407 | 38114 ft | 501 kts | 255° |
| 2026-05-04 07:59 | 49.38554 | -13.26580 | 38117 ft | 501 kts | 255° |
| 2026-05-04 07:59 | 49.36383 | -13.36741 | 38118 ft | 501 kts | 255° |
| 2026-05-04 08:00 | 49.34201 | -13.46901 | 38126 ft | 501 kts | 254° |
| 2026-05-04 08:02 | 49.25386 | -13.87438 | 38137 ft | 502 kts | 254° |
| 2026-05-04 08:02 | 49.23158 | -13.97563 | 38143 ft | 502 kts | 254° |
| 2026-05-04 08:03 | 49.20918 | -14.07690 | 38134 ft | 502 kts | 254° |
| 2026-05-04 08:03 | 49.18670 | -14.17801 | 38159 ft | 502 kts | 254° |
| 2026-05-04 08:04 | 49.16414 | -14.27905 | 38153 ft | 502 kts | 254° |
| 2026-05-04 08:04 | 49.14149 | -14.37998 | 38149 ft | 502 kts | 254° |
| 2026-05-04 08:05 | 49.11872 | -14.48096 | 38164 ft | 502 kts | 254° |
| 2026-05-04 08:05 | 49.09599 | -14.58128 | 38162 ft | 501 kts | 254° |
| 2026-05-04 08:06 | 49.07312 | -14.68179 | 38170 ft | 501 kts | 253° |
| 2026-05-04 08:06 | 49.05017 | -14.78212 | 38166 ft | 501 kts | 253° |
| 2026-05-04 08:08 | 48.95227 | -15.17918 | 38183 ft | 502 kts | 250° |
| 2026-05-04 08:11 | 48.83086 | -15.61783 | 38197 ft | 500 kts | 250° |
| 2026-05-04 08:11 | 48.79029 | -15.76377 | 38204 ft | 500 kts | 250° |
| 2026-05-04 08:12 | 48.76315 | -15.86086 | 38202 ft | 500 kts | 250° |
| 2026-05-04 08:12 | 48.73595 | -15.95777 | 38200 ft | 499 kts | 250° |
| 2026-05-04 08:13 | 48.70871 | -16.05441 | 38210 ft | 499 kts | 250° |
| 2026-05-04 08:13 | 48.68140 | -16.15096 | 38213 ft | 499 kts | 250° |
| 2026-05-04 08:14 | 48.65403 | -16.24730 | 38219 ft | 499 kts | 250° |
| 2026-05-04 08:16 | 48.54402 | -16.63067 | 38232 ft | 498 kts | 249° |
| 2026-05-04 08:16 | 48.51631 | -16.72628 | 38243 ft | 497 kts | 249° |
| 2026-05-04 08:17 | 48.48854 | -16.82173 | 38239 ft | 497 kts | 249° |
| 2026-05-04 08:17 | 48.46068 | -16.91711 | 38243 ft | 497 kts | 249° |
| 2026-05-04 08:19 | 48.34901 | -17.29572 | 38255 ft | 494 kts | 249° |
| 2026-05-04 08:20 | 48.32093 | -17.39002 | 38252 ft | 494 kts | 249° |
| 2026-05-04 08:20 | 48.29280 | -17.48411 | 38252 ft | 494 kts | 248° |
| 2026-05-04 08:21 | 48.26459 | -17.57808 | 38258 ft | 493 kts | 248° |
| 2026-05-04 08:21 | 48.23634 | -17.67188 | 38252 ft | 493 kts | 248° |
| 2026-05-04 08:22 | 48.20805 | -17.76544 | 38261 ft | 493 kts | 248° |
| 2026-05-04 08:24 | 48.09412 | -18.13865 | 38270 ft | 493 kts | 248° |
| 2026-05-04 08:24 | 48.06543 | -18.23173 | 38267 ft | 492 kts | 248° |
| 2026-05-04 08:25 | 48.03675 | -18.32446 | 38280 ft | 491 kts | 248° |
| 2026-05-04 08:25 | 48.00802 | -18.41700 | 38275 ft | 491 kts | 248° |
| 2026-05-04 08:27 | 47.89292 | -18.78437 | 38288 ft | 487 kts | 248° |
| 2026-05-04 08:28 | 47.86411 | -18.87550 | 38285 ft | 486 kts | 247° |
| 2026-05-04 08:28 | 47.83527 | -18.96639 | 38290 ft | 484 kts | 248° |
| 2026-05-04 08:29 | 47.80643 | -19.05696 | 38286 ft | 483 kts | 248° |
| 2026-05-04 08:31 | 47.69121 | -19.41560 | 38297 ft | 480 kts | 247° |
| 2026-05-04 08:33 | 47.57495 | -19.77247 | 38304 ft | 481 kts | 247° |
| 2026-05-04 08:35 | 47.46191 | -20.13061 | 38317 ft | 479 kts | 250° |
| 2026-05-04 08:35 | 47.43606 | -20.22126 | 38299 ft | 478 kts | 250° |
| 2026-05-04 08:37 | 47.34454 | -20.53624 | 38316 ft | 476 kts | 250° |
| 2026-05-04 08:38 | 47.31823 | -20.62583 | 38315 ft | 476 kts | 250° |
| 2026-05-04 08:38 | 47.29186 | -20.71536 | 38327 ft | 476 kts | 250° |
| 2026-05-04 08:40 | 47.18610 | -21.07115 | 38327 ft | 475 kts | 249° |
| 2026-05-04 08:41 | 47.15946 | -21.15998 | 38318 ft | 475 kts | 249° |
| 2026-05-04 08:41 | 47.13279 | -21.24855 | 38326 ft | 474 kts | 249° |
| 2026-05-04 08:42 | 47.10605 | -21.33709 | 38325 ft | 474 kts | 249° |
| 2026-05-04 08:42 | 47.07928 | -21.42539 | 38328 ft | 474 kts | 249° |
| 2026-05-04 08:43 | 47.05244 | -21.51359 | 38332 ft | 473 kts | 249° |
| 2026-05-04 08:43 | 47.02556 | -21.60164 | 38331 ft | 473 kts | 249° |
| 2026-05-04 08:44 | 46.99861 | -21.68960 | 38332 ft | 473 kts | 249° |
| 2026-05-04 08:46 | 46.89473 | -22.02581 | 38333 ft | 472 kts | 248° |
| 2026-05-04 08:46 | 46.86750 | -22.11321 | 38333 ft | 472 kts | 248° |
| 2026-05-04 08:47 | 46.84020 | -22.20050 | 38328 ft | 472 kts | 248° |
| 2026-05-04 08:47 | 46.81287 | -22.28762 | 38337 ft | 472 kts | 248° |
| 2026-05-04 08:48 | 46.78550 | -22.37456 | 38338 ft | 471 kts | 248° |
| 2026-05-04 08:48 | 46.75825 | -22.46083 | 38342 ft | 471 kts | 248° |
| 2026-05-04 08:49 | 46.73074 | -22.54762 | 38341 ft | 471 kts | 248° |
| 2026-05-04 08:50 | 46.63403 | -22.85040 | 38335 ft | 471 kts | 248° |
| 2026-05-04 08:51 | 46.60624 | -22.93675 | 38342 ft | 471 kts | 248° |
| 2026-05-04 08:51 | 46.57841 | -23.02293 | 38346 ft | 471 kts | 248° |
| 2026-05-04 08:52 | 46.55052 | -23.10902 | 38348 ft | 471 kts | 247° |
| 2026-05-04 08:52 | 46.52254 | -23.19509 | 38337 ft | 471 kts | 247° |
| 2026-05-04 08:54 | 46.41024 | -23.53767 | 38336 ft | 471 kts | 247° |
| 2026-05-04 08:55 | 46.38198 | -23.62317 | 38354 ft | 470 kts | 247° |
| 2026-05-04 08:55 | 46.35372 | -23.70841 | 38358 ft | 470 kts | 247° |
| 2026-05-04 09:01 | 46.05366 | -24.59659 | 38369 ft | 468 kts | 246° |
| 2026-05-04 09:01 | 46.02478 | -24.68050 | 38371 ft | 467 kts | 246° |
| 2026-05-04 09:02 | 45.99588 | -24.76420 | 38372 ft | 467 kts | 246° |
| 2026-05-04 09:02 | 45.96710 | -24.84734 | 38374 ft | 467 kts | 246° |
| 2026-05-04 09:03 | 45.93810 | -24.93081 | 38374 ft | 467 kts | 246° |
| 2026-05-04 09:03 | 45.90904 | -25.01419 | 38375 ft | 467 kts | 246° |
| 2026-05-04 09:04 | 45.87995 | -25.09742 | 38380 ft | 467 kts | 246° |
| 2026-05-04 09:04 | 45.85076 | -25.18066 | 38380 ft | 467 kts | 246° |
| 2026-05-04 09:05 | 45.82149 | -25.26386 | 38381 ft | 467 kts | 246° |
| 2026-05-04 09:05 | 45.79220 | -25.34687 | 38386 ft | 467 kts | 246° |
| 2026-05-04 09:06 | 45.76286 | -25.42978 | 38385 ft | 467 kts | 246° |
| 2026-05-04 09:08 | 45.64522 | -25.75959 | 38389 ft | 465 kts | 246° |
| 2026-05-04 09:08 | 45.61568 | -25.84177 | 38391 ft | 465 kts | 246° |
| 2026-05-04 09:09 | 45.58614 | -25.92371 | 38387 ft | 464 kts | 245° |
| 2026-05-04 09:09 | 45.55653 | -26.00559 | 38397 ft | 464 kts | 245° |
| 2026-05-04 09:10 | 45.52690 | -26.08729 | 38394 ft | 463 kts | 245° |
| 2026-05-04 09:10 | 45.49723 | -26.16885 | 38385 ft | 463 kts | 245° |
| 2026-05-04 09:11 | 45.46751 | -26.25031 | 38393 ft | 463 kts | 245° |
| 2026-05-04 09:11 | 45.43773 | -26.33166 | 38399 ft | 463 kts | 245° |
| 2026-05-04 09:12 | 45.40786 | -26.41305 | 38401 ft | 464 kts | 245° |
| 2026-05-04 09:14 | 45.28778 | -26.73773 | 38406 ft | 464 kts | 244° |
| 2026-05-04 09:14 | 45.25759 | -26.81877 | 38399 ft | 464 kts | 244° |
| 2026-05-04 09:15 | 45.22736 | -26.89966 | 38402 ft | 464 kts | 244° |
| 2026-05-04 09:15 | 45.19704 | -26.98055 | 38424 ft | 464 kts | 244° |
| 2026-05-04 09:17 | 45.06006 | -27.34309 | 38414 ft | 465 kts | 244° |
| 2026-05-04 09:18 | 45.02917 | -27.42418 | 38404 ft | 465 kts | 244° |
| 2026-05-04 09:18 | 44.99873 | -27.50386 | 38413 ft | 464 kts | 244° |
| 2026-05-04 09:19 | 44.96803 | -27.58400 | 38414 ft | 464 kts | 243° |
| 2026-05-04 09:19 | 44.93726 | -27.66407 | 38414 ft | 464 kts | 243° |
| 2026-05-04 09:20 | 44.90650 | -27.74392 | 38407 ft | 464 kts | 243° |
| 2026-05-04 09:20 | 44.87564 | -27.82376 | 38418 ft | 463 kts | 243° |
| 2026-05-04 09:21 | 44.84470 | -27.90361 | 38416 ft | 464 kts | 243° |
| 2026-05-04 09:21 | 44.81368 | -27.98340 | 38415 ft | 464 kts | 243° |
| 2026-05-04 09:22 | 44.78264 | -28.06304 | 38419 ft | 464 kts | 243° |
| 2026-05-04 09:22 | 44.75148 | -28.14277 | 38417 ft | 465 kts | 243° |
| 2026-05-04 09:23 | 44.72025 | -28.22242 | 38422 ft | 465 kts | 243° |
| 2026-05-04 09:23 | 44.68895 | -28.30205 | 38420 ft | 465 kts | 243° |
| 2026-05-04 09:25 | 44.56334 | -28.61930 | 38423 ft | 466 kts | 242° |
| 2026-05-04 09:26 | 44.53170 | -28.69865 | 38423 ft | 466 kts | 242° |
| 2026-05-04 09:26 | 44.49998 | -28.77797 | 38427 ft | 467 kts | 242° |
| 2026-05-04 09:27 | 44.46818 | -28.85729 | 38424 ft | 467 kts | 242° |
| 2026-05-04 09:27 | 44.43634 | -28.93646 | 38416 ft | 467 kts | 242° |
| 2026-05-04 09:28 | 44.40439 | -29.01571 | 38427 ft | 467 kts | 242° |
| 2026-05-04 09:28 | 44.37240 | -29.09481 | 38427 ft | 468 kts | 242° |
| 2026-05-04 09:29 | 44.34026 | -29.17407 | 38429 ft | 468 kts | 242° |
| 2026-05-04 09:29 | 44.30810 | -29.25316 | 38418 ft | 468 kts | 242° |
| 2026-05-04 09:30 | 44.27584 | -29.33225 | 38428 ft | 468 kts | 242° |
| 2026-05-04 09:30 | 44.24375 | -29.41075 | 38428 ft | 469 kts | 242° |
| 2026-05-04 09:31 | 44.21138 | -29.48968 | 38429 ft | 469 kts | 242° |
| 2026-05-04 09:31 | 44.17894 | -29.56858 | 38422 ft | 469 kts | 242° |
| 2026-05-04 09:32 | 44.14644 | -29.64741 | 38428 ft | 470 kts | 242° |
| 2026-05-04 09:34 | 44.02115 | -29.94935 | 38430 ft | 471 kts | 241° |
| 2026-05-04 09:34 | 43.99175 | -30.03039 | 38434 ft | 469 kts | 251° |
| 2026-05-04 09:35 | 43.97091 | -30.11605 | 38430 ft | 469 kts | 253° |
| 2026-05-04 09:35 | 43.95028 | -30.20206 | 38430 ft | 469 kts | 253° |
| 2026-05-04 09:37 | 43.86555 | -30.54515 | 38430 ft | 470 kts | 253° |
| 2026-05-04 09:38 | 43.84416 | -30.63073 | 38431 ft | 470 kts | 252° |
| 2026-05-04 09:38 | 43.82268 | -30.71637 | 38425 ft | 470 kts | 252° |
| 2026-05-04 09:39 | 43.80116 | -30.80186 | 38418 ft | 470 kts | 253° |
| 2026-05-04 09:39 | 43.77960 | -30.88719 | 38430 ft | 470 kts | 252° |
| 2026-05-04 09:40 | 43.75793 | -30.97264 | 38426 ft | 470 kts | 252° |
| 2026-05-04 09:40 | 43.73623 | -31.05790 | 38426 ft | 470 kts | 252° |
| 2026-05-04 09:42 | 43.64889 | -31.39797 | 38426 ft | 470 kts | 252° |
| 2026-05-04 09:43 | 43.62686 | -31.48297 | 38423 ft | 470 kts | 252° |
| 2026-05-04 09:43 | 43.60477 | -31.56791 | 38427 ft | 470 kts | 252° |
| 2026-05-04 09:44 | 43.58264 | -31.65272 | 38426 ft | 470 kts | 252° |
| 2026-05-04 09:46 | 43.49343 | -31.99147 | 38424 ft | 470 kts | 252° |
| 2026-05-04 09:46 | 43.47109 | -32.07553 | 38410 ft | 470 kts | 252° |
| 2026-05-04 09:47 | 43.44858 | -32.15996 | 38424 ft | 470 kts | 252° |
| 2026-05-04 09:49 | 43.35795 | -32.49695 | 38416 ft | 469 kts | 252° |
| 2026-05-04 09:51 | 43.27823 | -32.78957 | 38410 ft | 468 kts | 252° |
| 2026-05-04 09:51 | 43.25529 | -32.87311 | 38414 ft | 468 kts | 252° |
| 2026-05-04 09:52 | 43.23232 | -32.95652 | 38415 ft | 468 kts | 252° |
| 2026-05-04 09:52 | 43.20924 | -33.04002 | 38396 ft | 468 kts | 253° |
| 2026-05-04 09:53 | 43.18612 | -33.12338 | 38416 ft | 468 kts | 253° |
| 2026-05-04 09:53 | 43.16293 | -33.20672 | 38411 ft | 468 kts | 253° |
| 2026-05-04 09:54 | 43.13967 | -33.29002 | 38414 ft | 469 kts | 253° |
| 2026-05-04 09:54 | 43.11628 | -33.37348 | 38396 ft | 469 kts | 253° |
| 2026-05-04 09:55 | 43.09284 | -33.45688 | 38411 ft | 469 kts | 253° |
| 2026-05-04 09:55 | 43.06934 | -33.54019 | 38404 ft | 470 kts | 253° |
| 2026-05-04 09:56 | 43.04575 | -33.62357 | 38402 ft | 470 kts | 253° |
| 2026-05-04 09:56 | 43.02223 | -33.70635 | 38395 ft | 470 kts | 253° |
| 2026-05-04 09:57 | 42.99851 | -33.78964 | 38401 ft | 471 kts | 253° |
| 2026-05-04 09:57 | 42.97470 | -33.87295 | 38399 ft | 471 kts | 253° |
| 2026-05-04 09:58 | 42.95080 | -33.95631 | 38400 ft | 471 kts | 253° |
| 2026-05-04 09:58 | 42.92683 | -34.03958 | 38395 ft | 471 kts | 253° |
| 2026-05-04 10:00 | 42.83036 | -34.37215 | 38393 ft | 472 kts | 253° |
| 2026-05-04 10:04 | 42.65944 | -34.95088 | 38370 ft | 471 kts | 254° |
| 2026-05-04 10:04 | 42.63480 | -35.03322 | 38378 ft | 471 kts | 254° |
| 2026-05-04 10:05 | 42.61010 | -35.11554 | 38377 ft | 471 kts | 254° |
| 2026-05-04 10:05 | 42.58548 | -35.19733 | 38351 ft | 471 kts | 255° |
| 2026-05-04 10:06 | 42.56065 | -35.27954 | 38358 ft | 470 kts | 255° |
| 2026-05-04 10:06 | 42.53582 | -35.36149 | 38378 ft | 470 kts | 255° |
| 2026-05-04 10:08 | 42.44844 | -35.64788 | 38363 ft | 469 kts | 255° |
| 2026-05-04 10:08 | 42.42338 | -35.72945 | 38364 ft | 469 kts | 255° |
| 2026-05-04 10:09 | 42.39845 | -35.81033 | 38350 ft | 469 kts | 256° |
| 2026-05-04 10:09 | 42.37330 | -35.89168 | 38363 ft | 469 kts | 256° |
| 2026-05-04 10:10 | 42.34805 | -35.97313 | 38364 ft | 469 kts | 256° |
| 2026-05-04 10:10 | 42.32274 | -36.05452 | 38357 ft | 470 kts | 256° |
| 2026-05-04 10:11 | 42.29737 | -36.13583 | 38345 ft | 470 kts | 256° |
| 2026-05-04 10:11 | 42.27189 | -36.21727 | 38345 ft | 471 kts | 256° |
| 2026-05-04 10:12 | 42.24633 | -36.29867 | 38352 ft | 471 kts | 256° |
| 2026-05-04 10:12 | 42.22068 | -36.38014 | 38332 ft | 472 kts | 256° |
| 2026-05-04 10:13 | 42.19500 | -36.46143 | 38348 ft | 471 kts | 256° |
| 2026-05-04 10:13 | 42.16922 | -36.54277 | 38344 ft | 471 kts | 256° |
| 2026-05-04 10:14 | 42.14361 | -36.62334 | 38346 ft | 470 kts | 256° |
| 2026-05-04 10:16 | 42.04058 | -36.94511 | 38339 ft | 466 kts | 256° |
| 2026-05-04 10:16 | 42.01481 | -37.02502 | 38337 ft | 465 kts | 256° |
| 2026-05-04 10:17 | 41.98895 | -37.10500 | 38343 ft | 467 kts | 256° |
| 2026-05-04 10:19 | 41.88422 | -37.42636 | 38334 ft | 473 kts | 255° |
| 2026-05-04 10:19 | 41.85771 | -37.50707 | 38330 ft | 473 kts | 255° |
| 2026-05-04 10:20 | 41.83115 | -37.58769 | 38328 ft | 472 kts | 255° |
| 2026-05-04 10:20 | 41.80452 | -37.66830 | 38321 ft | 473 kts | 255° |
| 2026-05-04 10:21 | 41.77783 | -37.74888 | 38324 ft | 473 kts | 255° |
| 2026-05-04 10:21 | 41.75109 | -37.82938 | 38300 ft | 473 kts | 255° |
| 2026-05-04 10:22 | 41.71540 | -37.93641 | 38318 ft | 473 kts | 255° |
| 2026-05-04 10:23 | 41.68848 | -38.01688 | 38319 ft | 474 kts | 255° |
| 2026-05-04 10:25 | 41.58010 | -38.33852 | 38311 ft | 475 kts | 254° |
| 2026-05-04 10:25 | 41.55280 | -38.41892 | 38305 ft | 474 kts | 254° |
| 2026-05-04 10:26 | 41.52554 | -38.49899 | 38304 ft | 473 kts | 254° |
| 2026-05-04 10:26 | 41.49844 | -38.57839 | 38303 ft | 473 kts | 253° |
| 2026-05-04 10:27 | 41.47112 | -38.65817 | 38269 ft | 473 kts | 253° |
| 2026-05-04 10:27 | 41.44380 | -38.73774 | 38295 ft | 471 kts | 253° |
| 2026-05-04 10:28 | 41.41648 | -38.81707 | 38297 ft | 470 kts | 253° |
| 2026-05-04 10:28 | 41.38919 | -38.89612 | 38295 ft | 470 kts | 253° |
| 2026-05-04 10:29 | 41.36189 | -38.97497 | 38294 ft | 468 kts | 253° |
| 2026-05-04 10:29 | 41.33463 | -39.05347 | 38287 ft | 467 kts | 253° |
| 2026-05-04 10:30 | 41.30734 | -39.13185 | 38295 ft | 466 kts | 253° |
| 2026-05-04 10:30 | 41.28005 | -39.20999 | 38258 ft | 465 kts | 253° |
| 2026-05-04 10:31 | 41.25283 | -39.28772 | 38290 ft | 464 kts | 253° |
| 2026-05-04 10:32 | 41.15788 | -39.55724 | 38273 ft | 457 kts | 252° |
| 2026-05-04 10:33 | 41.13087 | -39.63345 | 38274 ft | 455 kts | 252° |
| 2026-05-04 10:33 | 41.10395 | -39.70922 | 38275 ft | 453 kts | 252° |
| 2026-05-04 10:34 | 41.07708 | -39.78464 | 38264 ft | 452 kts | 252° |
| 2026-05-04 10:34 | 41.05019 | -39.85994 | 38279 ft | 452 kts | 252° |
| 2026-05-04 10:35 | 41.02323 | -39.93530 | 38280 ft | 453 kts | 252° |
| 2026-05-04 10:35 | 40.99664 | -40.01054 | 38274 ft | 452 kts | 256° |
| 2026-05-04 10:36 | 40.97389 | -40.08783 | 38278 ft | 451 kts | 257° |
| 2026-05-04 10:36 | 40.95140 | -40.16557 | 38276 ft | 453 kts | 257° |
| 2026-05-04 10:37 | 40.92874 | -40.24334 | 38270 ft | 454 kts | 256° |
| 2026-05-04 10:37 | 40.90587 | -40.32121 | 38234 ft | 454 kts | 256° |
| 2026-05-04 10:39 | 40.82599 | -40.59067 | 38280 ft | 448 kts | 256° |
| 2026-05-04 10:39 | 40.81459 | -40.62898 | 38510 ft | 447 kts | 255° |
| 2026-05-04 10:40 | 40.80325 | -40.66697 | 38941 ft | 443 kts | 255° |
| 2026-05-04 10:40 | 40.79192 | -40.70481 | 39208 ft | 442 kts | 255° |
| 2026-05-04 10:40 | 40.78064 | -40.74250 | 39377 ft | 443 kts | 255° |
| 2026-05-04 10:40 | 40.76930 | -40.78040 | 39530 ft | 444 kts | 255° |
| 2026-05-04 10:41 | 40.75796 | -40.81821 | 39702 ft | 444 kts | 255° |
| 2026-05-04 10:41 | 40.74659 | -40.85606 | 39895 ft | 444 kts | 255° |
| 2026-05-04 10:41 | 40.73521 | -40.89387 | 40072 ft | 443 kts | 255° |
| 2026-05-04 10:41 | 40.72383 | -40.93160 | 40195 ft | 444 kts | 255° |
| 2026-05-04 10:42 | 40.71254 | -40.96906 | 40229 ft | 446 kts | 255° |
| 2026-05-04 10:42 | 40.68952 | -41.04517 | 40244 ft | 446 kts | 255° |
| 2026-05-04 10:43 | 40.66665 | -41.12040 | 40252 ft | 440 kts | 255° |
| 2026-05-04 10:45 | 40.57614 | -41.41676 | 40245 ft | 435 kts | 254° |
| 2026-05-04 10:45 | 40.55346 | -41.49055 | 40234 ft | 435 kts | 254° |
| 2026-05-04 10:46 | 40.53068 | -41.56439 | 40240 ft | 436 kts | 254° |
| 2026-05-04 10:46 | 40.50780 | -41.63838 | 40238 ft | 437 kts | 254° |
| 2026-05-04 10:47 | 40.48483 | -41.71246 | 40234 ft | 438 kts | 253° |
| 2026-05-04 10:47 | 40.46179 | -41.78652 | 40229 ft | 438 kts | 253° |
| 2026-05-04 10:49 | 40.36928 | -42.08193 | 40224 ft | 436 kts | 253° |
| 2026-05-04 10:50 | 40.34613 | -42.15536 | 40225 ft | 436 kts | 253° |
| 2026-05-04 10:52 | 40.25340 | -42.44758 | 40222 ft | 434 kts | 253° |
| 2026-05-04 10:52 | 40.23008 | -42.52057 | 40223 ft | 434 kts | 253° |
| 2026-05-04 10:54 | 40.13634 | -42.81209 | 40214 ft | 436 kts | 252° |
| 2026-05-04 10:56 | 40.04148 | -43.10394 | 40214 ft | 438 kts | 251° |
| 2026-05-04 10:57 | 40.01760 | -43.17694 | 40209 ft | 437 kts | 251° |
| 2026-05-04 10:57 | 39.99365 | -43.24994 | 40213 ft | 437 kts | 251° |
| 2026-05-04 10:58 | 39.96969 | -43.32280 | 40210 ft | 437 kts | 251° |
| 2026-05-04 10:58 | 39.94569 | -43.39560 | 40195 ft | 437 kts | 251° |
| 2026-05-04 10:59 | 39.92166 | -43.46828 | 40205 ft | 437 kts | 251° |
| 2026-05-04 10:59 | 39.89759 | -43.54092 | 40206 ft | 437 kts | 251° |
| 2026-05-04 11:00 | 39.87348 | -43.61348 | 40210 ft | 437 kts | 251° |
| 2026-05-04 11:02 | 39.77674 | -43.90274 | 40195 ft | 435 kts | 250° |
| 2026-05-04 11:05 | 39.59404 | -44.44115 | 40185 ft | 435 kts | 250° |
| 2026-05-04 11:06 | 39.56944 | -44.51286 | 40177 ft | 435 kts | 250° |
| 2026-05-04 11:06 | 39.54483 | -44.58443 | 40183 ft | 435 kts | 250° |
| 2026-05-04 11:10 | 39.37554 | -45.07200 | 40159 ft | 434 kts | 250° |
| 2026-05-04 11:12 | 39.27614 | -45.35450 | 40156 ft | 430 kts | 250° |
| 2026-05-04 11:12 | 39.25130 | -45.42468 | 40154 ft | 429 kts | 250° |
| 2026-05-04 11:13 | 39.22649 | -45.49460 | 40153 ft | 428 kts | 250° |
| 2026-05-04 11:13 | 39.20168 | -45.56437 | 40148 ft | 427 kts | 250° |
| 2026-05-04 11:14 | 39.17689 | -45.63391 | 40152 ft | 427 kts | 250° |
| 2026-05-04 11:16 | 39.07729 | -45.91162 | 40143 ft | 427 kts | 250° |
| 2026-05-04 11:16 | 39.05243 | -45.98054 | 40142 ft | 427 kts | 250° |
| 2026-05-04 11:17 | 39.02740 | -46.04976 | 40141 ft | 426 kts | 250° |
| 2026-05-04 11:19 | 38.92734 | -46.32486 | 40126 ft | 423 kts | 250° |
| 2026-05-04 11:19 | 38.90234 | -46.39318 | 40128 ft | 422 kts | 250° |
| 2026-05-04 11:20 | 38.87735 | -46.46134 | 40127 ft | 421 kts | 250° |
| 2026-05-04 11:20 | 38.85237 | -46.52931 | 40132 ft | 421 kts | 250° |
| 2026-05-04 11:22 | 38.75268 | -46.79904 | 40125 ft | 417 kts | 250° |
| 2026-05-04 11:23 | 38.72784 | -46.86588 | 40119 ft | 415 kts | 250° |
| 2026-05-04 11:25 | 38.64136 | -47.09741 | 40120 ft | 410 kts | 250° |
| 2026-05-04 11:25 | 38.61688 | -47.16263 | 40118 ft | 409 kts | 250° |
| 2026-05-04 11:27 | 38.50567 | -47.45718 | 40112 ft | 408 kts | 250° |
| 2026-05-04 11:28 | 38.48089 | -47.52243 | 40115 ft | 408 kts | 250° |
| 2026-05-04 11:28 | 38.45610 | -47.58755 | 40108 ft | 408 kts | 250° |
| 2026-05-04 11:29 | 38.43128 | -47.65261 | 40113 ft | 408 kts | 250° |
| 2026-05-04 11:29 | 38.40642 | -47.71765 | 40112 ft | 408 kts | 250° |
| 2026-05-04 11:33 | 38.23222 | -48.16948 | 40114 ft | 405 kts | 249° |
| 2026-05-04 11:33 | 38.20723 | -48.23378 | 40102 ft | 405 kts | 249° |
| 2026-05-04 11:34 | 38.18227 | -48.29783 | 40098 ft | 404 kts | 249° |
| 2026-05-04 11:34 | 38.15733 | -48.36169 | 40097 ft | 403 kts | 249° |
| 2026-05-04 11:35 | 38.13240 | -48.42542 | 40096 ft | 403 kts | 249° |
| 2026-05-04 11:35 | 38.10747 | -48.48903 | 40101 ft | 402 kts | 249° |
| 2026-05-04 11:36 | 38.08253 | -48.55251 | 40097 ft | 402 kts | 249° |
| 2026-05-04 11:36 | 38.05753 | -48.61603 | 40096 ft | 402 kts | 249° |
| 2026-05-04 11:37 | 38.03253 | -48.67940 | 40089 ft | 402 kts | 249° |
| 2026-05-04 11:37 | 38.00749 | -48.74275 | 40097 ft | 402 kts | 249° |
| 2026-05-04 11:38 | 37.98240 | -48.80610 | 40099 ft | 402 kts | 249° |
| 2026-05-04 11:38 | 37.95741 | -48.86906 | 40096 ft | 402 kts | 249° |
| 2026-05-04 11:39 | 37.93223 | -48.93239 | 40095 ft | 403 kts | 249° |
| 2026-05-04 11:41 | 37.84364 | -49.15416 | 40078 ft | 404 kts | 248° |
| 2026-05-04 11:41 | 37.81823 | -49.21749 | 40087 ft | 404 kts | 248° |
| 2026-05-04 11:42 | 37.79276 | -49.28082 | 40095 ft | 404 kts | 248° |
| 2026-05-04 11:42 | 37.76724 | -49.34416 | 40091 ft | 404 kts | 248° |
| 2026-05-04 11:43 | 37.74166 | -49.40753 | 40085 ft | 405 kts | 248° |
| 2026-05-04 11:43 | 37.71606 | -49.47079 | 40090 ft | 405 kts | 248° |
| 2026-05-04 11:44 | 37.69041 | -49.53406 | 40096 ft | 405 kts | 248° |
| 2026-05-04 11:44 | 37.66492 | -49.59685 | 40090 ft | 405 kts | 248° |
| 2026-05-04 11:45 | 37.63921 | -49.66001 | 40085 ft | 404 kts | 248° |
| 2026-05-04 11:45 | 37.61348 | -49.72309 | 40086 ft | 404 kts | 248° |
| 2026-05-04 11:46 | 37.58778 | -49.78601 | 40079 ft | 404 kts | 247° |
| 2026-05-04 11:46 | 37.56205 | -49.84887 | 40080 ft | 403 kts | 247° |
| 2026-05-04 11:47 | 37.53632 | -49.91163 | 40086 ft | 403 kts | 247° |
| 2026-05-04 11:47 | 37.51087 | -49.97449 | 40084 ft | 401 kts | 250° |
| 2026-05-04 11:48 | 37.49167 | -50.03992 | 40077 ft | 397 kts | 258° |
| 2026-05-04 11:48 | 37.47812 | -50.10717 | 40068 ft | 396 kts | 259° |
| 2026-05-04 11:49 | 37.46460 | -50.17454 | 40083 ft | 397 kts | 258° |
| 2026-05-04 11:49 | 37.45096 | -50.24201 | 40084 ft | 398 kts | 258° |
| 2026-05-04 11:50 | 37.43721 | -50.30961 | 40073 ft | 399 kts | 258° |
| 2026-05-04 11:50 | 37.42340 | -50.37723 | 40072 ft | 399 kts | 258° |
| 2026-05-04 11:51 | 37.40954 | -50.44485 | 40078 ft | 399 kts | 258° |
| 2026-05-04 11:51 | 37.39566 | -50.51236 | 40068 ft | 399 kts | 258° |
| 2026-05-04 11:52 | 37.38185 | -50.57935 | 40075 ft | 398 kts | 258° |
| 2026-05-04 11:52 | 37.36790 | -50.64673 | 40071 ft | 398 kts | 258° |
| 2026-05-04 11:53 | 37.35393 | -50.71411 | 40057 ft | 398 kts | 257° |
| 2026-05-04 11:53 | 37.33992 | -50.78136 | 40068 ft | 398 kts | 257° |
| 2026-05-04 11:55 | 37.28353 | -51.05021 | 40054 ft | 398 kts | 257° |
| 2026-05-04 11:56 | 37.26934 | -51.11733 | 40064 ft | 398 kts | 257° |
| 2026-05-04 11:56 | 37.25750 | -51.17316 | 40063 ft | 398 kts | 257° |
| 2026-05-04 11:57 | 37.24091 | -51.25119 | 40069 ft | 398 kts | 257° |
| 2026-05-04 11:57 | 37.22659 | -51.31833 | 40060 ft | 399 kts | 257° |
| 2026-05-04 11:58 | 37.21454 | -51.37468 | 40065 ft | 399 kts | 257° |
| 2026-05-04 11:58 | 37.20013 | -51.44187 | 40061 ft | 399 kts | 257° |
| 2026-05-04 11:59 | 37.18565 | -51.50920 | 40066 ft | 400 kts | 256° |
| 2026-05-04 11:59 | 37.17112 | -51.57653 | 40079 ft | 400 kts | 256° |
| 2026-05-04 12:00 | 37.15655 | -51.64385 | 40040 ft | 400 kts | 256° |
| 2026-05-04 12:00 | 37.14193 | -51.71119 | 40068 ft | 400 kts | 256° |
| 2026-05-04 12:01 | 37.12736 | -51.77807 | 40068 ft | 400 kts | 256° |
| 2026-05-04 12:02 | 37.07576 | -52.01348 | 40062 ft | 399 kts | 256° |
| 2026-05-04 12:03 | 37.06098 | -52.08047 | 40067 ft | 399 kts | 256° |
| 2026-05-04 12:03 | 37.04616 | -52.14742 | 40063 ft | 398 kts | 256° |
| 2026-05-04 12:04 | 37.03135 | -52.21413 | 40061 ft | 398 kts | 256° |
| 2026-05-04 12:04 | 37.01652 | -52.28076 | 40038 ft | 397 kts | 256° |
| 2026-05-04 12:05 | 37.00167 | -52.34725 | 40059 ft | 397 kts | 256° |
| 2026-05-04 12:05 | 36.98681 | -52.41362 | 40064 ft | 396 kts | 256° |
| 2026-05-04 12:06 | 36.97191 | -52.47999 | 40061 ft | 396 kts | 256° |
| 2026-05-04 12:06 | 36.95700 | -52.54624 | 40081 ft | 396 kts | 256° |
| 2026-05-04 12:07 | 36.94202 | -52.61252 | 40045 ft | 396 kts | 256° |
| 2026-05-04 12:07 | 36.92702 | -52.67876 | 40057 ft | 396 kts | 256° |
| 2026-05-04 12:08 | 36.91200 | -52.74490 | 40062 ft | 396 kts | 255° |
| 2026-05-04 12:08 | 36.89693 | -52.81106 | 40072 ft | 396 kts | 255° |
| 2026-05-04 12:09 | 36.88183 | -52.87717 | 40066 ft | 396 kts | 255° |
| 2026-05-04 12:09 | 36.86670 | -52.94324 | 40041 ft | 395 kts | 255° |
| 2026-05-04 12:10 | 36.85167 | -53.00869 | 40075 ft | 394 kts | 255° |
| 2026-05-04 12:10 | 36.83650 | -53.07456 | 40074 ft | 395 kts | 255° |
| 2026-05-04 12:11 | 36.82129 | -53.14041 | 40067 ft | 395 kts | 255° |
| 2026-05-04 12:11 | 36.80604 | -53.20621 | 40070 ft | 395 kts | 255° |
| 2026-05-04 12:12 | 36.79077 | -53.27197 | 40062 ft | 395 kts | 255° |
| 2026-05-04 12:12 | 36.77549 | -53.33756 | 40070 ft | 394 kts | 255° |
| 2026-05-04 12:14 | 36.71403 | -53.59965 | 40071 ft | 394 kts | 255° |
| 2026-05-04 12:15 | 36.69857 | -53.66515 | 40070 ft | 394 kts | 255° |
| 2026-05-04 12:15 | 36.68318 | -53.73014 | 40068 ft | 394 kts | 255° |
| 2026-05-04 12:16 | 36.66764 | -53.79558 | 40082 ft | 393 kts | 255° |
| 2026-05-04 12:16 | 36.65211 | -53.86083 | 40077 ft | 393 kts | 255° |
| 2026-05-04 12:17 | 36.63657 | -53.92594 | 40073 ft | 392 kts | 255° |
| 2026-05-04 12:17 | 36.62103 | -53.99088 | 40069 ft | 391 kts | 255° |
| 2026-05-04 12:18 | 36.60547 | -54.05571 | 40094 ft | 391 kts | 255° |
| 2026-05-04 12:18 | 36.58989 | -54.12046 | 40082 ft | 391 kts | 255° |
| 2026-05-04 12:19 | 36.57429 | -54.18515 | 40087 ft | 390 kts | 255° |
| 2026-05-04 12:19 | 36.55865 | -54.24979 | 40122 ft | 390 kts | 255° |
| 2026-05-04 12:20 | 36.54299 | -54.31437 | 40076 ft | 390 kts | 255° |
| 2026-05-04 12:20 | 36.52733 | -54.37879 | 40087 ft | 389 kts | 255° |
| 2026-05-04 12:21 | 36.51163 | -54.44317 | 40095 ft | 389 kts | 255° |
| 2026-05-04 12:21 | 36.49586 | -54.50769 | 40120 ft | 390 kts | 255° |
| 2026-05-04 12:22 | 36.48004 | -54.57222 | 40098 ft | 390 kts | 255° |
| 2026-05-04 12:22 | 36.46425 | -54.63651 | 40077 ft | 388 kts | 255° |
| 2026-05-04 12:23 | 36.44846 | -54.70060 | 40093 ft | 388 kts | 254° |
| 2026-05-04 12:23 | 36.43277 | -54.76414 | 40125 ft | 387 kts | 255° |
| 2026-05-04 12:24 | 36.41693 | -54.82810 | 40106 ft | 387 kts | 255° |
| 2026-05-04 12:24 | 36.40107 | -54.89200 | 40106 ft | 387 kts | 255° |
| 2026-05-04 12:25 | 36.38520 | -54.95578 | 40097 ft | 386 kts | 255° |
| 2026-05-04 12:25 | 36.36932 | -55.01942 | 40120 ft | 386 kts | 255° |
| 2026-05-04 12:26 | 36.35340 | -55.08306 | 40108 ft | 386 kts | 255° |
| 2026-05-04 12:26 | 36.33746 | -55.14664 | 40096 ft | 386 kts | 255° |
| 2026-05-04 12:27 | 36.32151 | -55.21007 | 40105 ft | 386 kts | 255° |
| 2026-05-04 12:27 | 36.30552 | -55.27351 | 40134 ft | 385 kts | 254° |
| 2026-05-04 12:28 | 36.28951 | -55.33688 | 40092 ft | 385 kts | 254° |
| 2026-05-04 12:28 | 36.27359 | -55.39975 | 40093 ft | 384 kts | 254° |
| 2026-05-04 12:29 | 36.25755 | -55.46291 | 40108 ft | 384 kts | 254° |
| 2026-05-04 12:29 | 36.24148 | -55.52606 | 40138 ft | 384 kts | 254° |
| 2026-05-04 12:30 | 36.22536 | -55.58920 | 40123 ft | 384 kts | 254° |
| 2026-05-04 12:30 | 36.20923 | -55.65225 | 40109 ft | 384 kts | 254° |
| 2026-05-04 12:31 | 36.19310 | -55.71518 | 40099 ft | 383 kts | 254° |
| 2026-05-04 12:31 | 36.17693 | -55.77808 | 40106 ft | 384 kts | 254° |
| 2026-05-04 12:32 | 36.15258 | -55.87252 | 40110 ft | 384 kts | 253° |
| 2026-05-04 12:33 | 36.13631 | -55.93540 | 40121 ft | 384 kts | 253° |
| 2026-05-04 12:33 | 36.12003 | -55.99821 | 40117 ft | 383 kts | 253° |
| 2026-05-04 12:34 | 36.10373 | -56.06092 | 40107 ft | 383 kts | 254° |
| 2026-05-04 12:34 | 36.08741 | -56.12358 | 40112 ft | 383 kts | 253° |
| 2026-05-04 12:35 | 36.07104 | -56.18626 | 40119 ft | 383 kts | 253° |
| 2026-05-04 12:35 | 36.05461 | -56.24903 | 40117 ft | 384 kts | 253° |
| 2026-05-04 12:36 | 36.03814 | -56.31177 | 40151 ft | 384 kts | 253° |
| 2026-05-04 12:36 | 36.02173 | -56.37418 | 40089 ft | 384 kts | 253° |
| 2026-05-04 12:37 | 36.00518 | -56.43690 | 40104 ft | 384 kts | 253° |
| 2026-05-04 12:37 | 35.98862 | -56.49956 | 40113 ft | 384 kts | 253° |
| 2026-05-04 12:38 | 35.97205 | -56.56214 | 40122 ft | 384 kts | 253° |
| 2026-05-04 12:38 | 35.95542 | -56.62475 | 40131 ft | 384 kts | 253° |
| 2026-05-04 12:39 | 35.93878 | -56.68727 | 40124 ft | 383 kts | 253° |
| 2026-05-04 12:39 | 35.92209 | -56.74980 | 40100 ft | 383 kts | 253° |
| 2026-05-04 12:40 | 35.90541 | -56.81216 | 40115 ft | 383 kts | 253° |
| 2026-05-04 12:40 | 35.88870 | -56.87449 | 40138 ft | 383 kts | 253° |
| 2026-05-04 12:41 | 35.87196 | -56.93679 | 40126 ft | 383 kts | 253° |
| 2026-05-04 12:41 | 35.85518 | -56.99908 | 40120 ft | 383 kts | 253° |
| 2026-05-04 12:42 | 35.83838 | -57.06132 | 40129 ft | 382 kts | 253° |
| 2026-05-04 12:42 | 35.82155 | -57.12352 | 40151 ft | 382 kts | 253° |
| 2026-05-04 12:43 | 35.80470 | -57.18562 | 40126 ft | 382 kts | 252° |
| 2026-05-04 12:43 | 35.78796 | -57.24719 | 40125 ft | 381 kts | 252° |
| 2026-05-04 12:44 | 35.77109 | -57.30911 | 40126 ft | 381 kts | 252° |
| 2026-05-04 12:44 | 35.75422 | -57.37087 | 40126 ft | 381 kts | 252° |
| 2026-05-04 12:45 | 35.74018 | -57.42220 | 40134 ft | 380 kts | 252° |
| 2026-05-04 12:45 | 35.72326 | -57.48388 | 40120 ft | 380 kts | 252° |
| 2026-05-04 12:46 | 35.70634 | -57.54543 | 40138 ft | 379 kts | 252° |
| 2026-05-04 12:46 | 35.68940 | -57.60692 | 40132 ft | 379 kts | 252° |
| 2026-05-04 12:47 | 35.67243 | -57.66834 | 40149 ft | 380 kts | 252° |
| 2026-05-04 12:47 | 35.65543 | -57.72981 | 40138 ft | 380 kts | 252° |
| 2026-05-04 12:48 | 35.63839 | -57.79123 | 40136 ft | 379 kts | 252° |
| 2026-05-04 12:48 | 35.62133 | -57.85261 | 40123 ft | 379 kts | 252° |
| 2026-05-04 12:49 | 35.60424 | -57.91390 | 40135 ft | 379 kts | 252° |
| 2026-05-04 12:49 | 35.58711 | -57.97523 | 40146 ft | 380 kts | 252° |
| 2026-05-04 12:50 | 35.56995 | -58.03654 | 40135 ft | 379 kts | 252° |
| 2026-05-04 12:50 | 35.55275 | -58.09789 | 40138 ft | 379 kts | 252° |
| 2026-05-04 12:51 | 35.53565 | -58.15868 | 40136 ft | 379 kts | 252° |
| 2026-05-04 12:51 | 35.51844 | -58.21977 | 40143 ft | 378 kts | 252° |
| 2026-05-04 12:52 | 35.50121 | -58.28079 | 40143 ft | 378 kts | 252° |
| 2026-05-04 12:52 | 35.48396 | -58.34174 | 40141 ft | 378 kts | 252° |
| 2026-05-04 12:53 | 35.46670 | -58.40259 | 40142 ft | 378 kts | 252° |
| 2026-05-04 12:53 | 35.44939 | -58.46346 | 40141 ft | 377 kts | 252° |
| 2026-05-04 12:54 | 35.43209 | -58.52418 | 40147 ft | 377 kts | 252° |
| 2026-05-04 12:54 | 35.41486 | -58.58454 | 40112 ft | 377 kts | 252° |
| 2026-05-04 12:55 | 35.39753 | -58.64512 | 40135 ft | 376 kts | 252° |
| 2026-05-04 12:55 | 35.38016 | -58.70567 | 40149 ft | 376 kts | 252° |
| 2026-05-04 12:56 | 35.36275 | -58.76625 | 40145 ft | 377 kts | 252° |
| 2026-05-04 12:56 | 35.34533 | -58.82675 | 40148 ft | 377 kts | 252° |
| 2026-05-04 12:57 | 35.32783 | -58.88736 | 40149 ft | 377 kts | 252° |
| 2026-05-04 12:57 | 35.31030 | -58.94799 | 40148 ft | 378 kts | 251° |
| 2026-05-04 12:58 | 35.29284 | -59.00822 | 40143 ft | 378 kts | 251° |
| 2026-05-04 12:58 | 35.27520 | -59.06892 | 40151 ft | 379 kts | 251° |
| 2026-05-04 12:59 | 35.25750 | -59.12973 | 40150 ft | 379 kts | 251° |
| 2026-05-04 12:59 | 35.23977 | -59.19047 | 40153 ft | 379 kts | 251° |
| 2026-05-04 13:00 | 35.22203 | -59.25117 | 40152 ft | 379 kts | 251° |
| 2026-05-04 13:00 | 35.20429 | -59.31171 | 40151 ft | 378 kts | 251° |
| 2026-05-04 13:01 | 35.18651 | -59.37228 | 40152 ft | 377 kts | 251° |
| 2026-05-04 13:01 | 35.16886 | -59.43226 | 40154 ft | 377 kts | 251° |
| 2026-05-04 13:02 | 35.15108 | -59.49253 | 40154 ft | 377 kts | 251° |
| 2026-05-04 13:02 | 35.13331 | -59.55271 | 40153 ft | 377 kts | 251° |
| 2026-05-04 13:03 | 35.11549 | -59.61286 | 40177 ft | 376 kts | 251° |
| 2026-05-04 13:03 | 35.09767 | -59.67296 | 40159 ft | 376 kts | 251° |
| 2026-05-04 13:04 | 35.07980 | -59.73305 | 40119 ft | 376 kts | 251° |
| 2026-05-04 13:04 | 35.06194 | -59.79300 | 40157 ft | 376 kts | 251° |
| 2026-05-04 13:05 | 35.04405 | -59.85290 | 40163 ft | 376 kts | 251° |
| 2026-05-04 13:05 | 35.02610 | -59.91291 | 40161 ft | 377 kts | 251° |
| 2026-05-04 13:06 | 35.00821 | -59.97261 | 40158 ft | 377 kts | 251° |
| 2026-05-04 13:06 | 34.99065 | -60.03282 | 40158 ft | 377 kts | 252° |
| 2026-05-04 13:07 | 34.97435 | -60.09395 | 40162 ft | 376 kts | 252° |
| 2026-05-04 13:07 | 34.95838 | -60.15421 | 40164 ft | 376 kts | 252° |
| 2026-05-04 13:08 | 34.94216 | -60.21481 | 40164 ft | 377 kts | 252° |
| 2026-05-04 13:08 | 34.92582 | -60.27541 | 40163 ft | 376 kts | 252° |
| 2026-05-04 13:09 | 34.90942 | -60.33601 | 40169 ft | 376 kts | 252° |
| 2026-05-04 13:09 | 34.89299 | -60.39656 | 40165 ft | 376 kts | 252° |
| 2026-05-04 13:10 | 34.87655 | -60.45701 | 40165 ft | 376 kts | 252° |
| 2026-05-04 13:10 | 34.86008 | -60.51745 | 40173 ft | 376 kts | 252° |
| 2026-05-04 13:11 | 34.84360 | -60.57775 | 40164 ft | 375 kts | 252° |
| 2026-05-04 13:11 | 34.82711 | -60.63799 | 40168 ft | 375 kts | 252° |
| 2026-05-04 13:12 | 34.81058 | -60.69821 | 40166 ft | 375 kts | 252° |
| 2026-05-04 13:12 | 34.79413 | -60.75802 | 40200 ft | 375 kts | 251° |
| 2026-05-04 13:13 | 34.77754 | -60.81825 | 40178 ft | 375 kts | 251° |
| 2026-05-04 13:13 | 34.76092 | -60.87842 | 40170 ft | 375 kts | 251° |
| 2026-05-04 13:14 | 34.74427 | -60.93856 | 40171 ft | 375 kts | 251° |
| 2026-05-04 13:14 | 34.72762 | -60.99858 | 40171 ft | 374 kts | 251° |
| 2026-05-04 13:15 | 34.71095 | -61.05856 | 40187 ft | 374 kts | 251° |
| 2026-05-04 13:15 | 34.69425 | -61.11849 | 40169 ft | 374 kts | 251° |
| 2026-05-04 13:16 | 34.67755 | -61.17830 | 40171 ft | 374 kts | 251° |
| 2026-05-04 13:16 | 34.66094 | -61.23767 | 40171 ft | 373 kts | 251° |
| 2026-05-04 13:17 | 34.64420 | -61.29734 | 40169 ft | 373 kts | 251° |
| 2026-05-04 13:17 | 34.62743 | -61.35703 | 40199 ft | 373 kts | 251° |
| 2026-05-04 13:18 | 34.61064 | -61.41665 | 40165 ft | 373 kts | 251° |
| 2026-05-04 13:18 | 34.59385 | -61.47617 | 40173 ft | 373 kts | 251° |
| 2026-05-04 13:19 | 34.57701 | -61.53569 | 40175 ft | 373 kts | 251° |
| 2026-05-04 13:19 | 34.56014 | -61.59523 | 40175 ft | 373 kts | 251° |
| 2026-05-04 13:20 | 34.54325 | -61.65472 | 40175 ft | 373 kts | 251° |
| 2026-05-04 13:20 | 34.52626 | -61.71441 | 40174 ft | 374 kts | 251° |
| 2026-05-04 13:21 | 34.50928 | -61.77396 | 40175 ft | 374 kts | 251° |
| 2026-05-04 13:21 | 34.49225 | -61.83352 | 40169 ft | 374 kts | 251° |
| 2026-05-04 13:22 | 34.47519 | -61.89312 | 40173 ft | 374 kts | 251° |
| 2026-05-04 13:22 | 34.45818 | -61.95239 | 40182 ft | 376 kts | 251° |
| 2026-05-04 13:23 | 34.44099 | -62.01219 | 40177 ft | 376 kts | 251° |
| 2026-05-04 13:23 | 34.42376 | -62.07202 | 40175 ft | 376 kts | 251° |
| 2026-05-04 13:24 | 34.40652 | -62.13171 | 40172 ft | 375 kts | 251° |
| 2026-05-04 13:24 | 34.38857 | -62.19103 | 40174 ft | 375 kts | 250° |
| 2026-05-04 13:25 | 34.36090 | -62.27955 | 40173 ft | 374 kts | 249° |
| 2026-05-04 13:25 | 34.34252 | -62.33847 | 40174 ft | 374 kts | 249° |
| 2026-05-04 13:26 | 34.32428 | -62.39698 | 40174 ft | 374 kts | 249° |
| 2026-05-04 13:26 | 34.30592 | -62.45584 | 40177 ft | 374 kts | 249° |
| 2026-05-04 13:27 | 34.28752 | -62.51472 | 40177 ft | 374 kts | 249° |
| 2026-05-04 13:27 | 34.26910 | -62.57352 | 40182 ft | 374 kts | 249° |
| 2026-05-04 13:28 | 34.25066 | -62.63229 | 40179 ft | 374 kts | 249° |
| 2026-05-04 13:28 | 34.23222 | -62.69096 | 40170 ft | 374 kts | 249° |
| 2026-05-04 13:29 | 34.21372 | -62.74970 | 40181 ft | 374 kts | 249° |
| 2026-05-04 13:29 | 34.19518 | -62.80844 | 40180 ft | 374 kts | 249° |
| 2026-05-04 13:30 | 34.17671 | -62.86685 | 40189 ft | 375 kts | 249° |
| 2026-05-04 13:30 | 34.15809 | -62.92565 | 40180 ft | 375 kts | 249° |
| 2026-05-04 13:31 | 34.13944 | -62.98442 | 40182 ft | 375 kts | 249° |
| 2026-05-04 13:31 | 34.12076 | -63.04317 | 40185 ft | 374 kts | 249° |
| 2026-05-04 13:32 | 34.10206 | -63.10176 | 40177 ft | 374 kts | 249° |
| 2026-05-04 13:32 | 34.08331 | -63.16035 | 40195 ft | 375 kts | 249° |
| 2026-05-04 13:33 | 34.06453 | -63.21897 | 40192 ft | 375 kts | 249° |
| 2026-05-04 13:33 | 34.04582 | -63.27726 | 40191 ft | 375 kts | 249° |
| 2026-05-04 13:34 | 34.03004 | -63.32636 | 40188 ft | 375 kts | 249° |
| 2026-05-04 13:34 | 34.01118 | -63.38494 | 40188 ft | 375 kts | 249° |
| 2026-05-04 13:35 | 33.97977 | -63.48224 | 40144 ft | 375 kts | 249° |
| 2026-05-04 13:36 | 33.96392 | -63.53123 | 40187 ft | 374 kts | 249° |
| 2026-05-04 13:36 | 33.94499 | -63.58964 | 40193 ft | 374 kts | 248° |
| 2026-05-04 13:37 | 33.92617 | -63.64759 | 40193 ft | 374 kts | 248° |
| 2026-05-04 13:37 | 33.90716 | -63.70599 | 40194 ft | 375 kts | 248° |
| 2026-05-04 13:38 | 33.88814 | -63.76434 | 40212 ft | 375 kts | 249° |
| 2026-05-04 13:38 | 33.86904 | -63.82281 | 40197 ft | 375 kts | 249° |
| 2026-05-04 13:39 | 33.84995 | -63.88114 | 40192 ft | 374 kts | 248° |
| 2026-05-04 13:39 | 33.83088 | -63.93934 | 40186 ft | 373 kts | 248° |
| 2026-05-04 13:40 | 33.81179 | -63.99746 | 40189 ft | 373 kts | 248° |
| 2026-05-04 13:40 | 33.79267 | -64.05556 | 40228 ft | 374 kts | 248° |
| 2026-05-04 13:41 | 33.77349 | -64.11375 | 40205 ft | 374 kts | 248° |
| 2026-05-04 13:41 | 33.75426 | -64.17196 | 40197 ft | 375 kts | 248° |
| 2026-05-04 13:42 | 33.72549 | -64.25885 | 40196 ft | 374 kts | 248° |
| 2026-05-04 13:42 | 33.70619 | -64.31702 | 39652 ft | 379 kts | 248° |
| 2026-05-04 13:43 | 33.69651 | -64.34614 | 39100 ft | 372 kts | 248° |
| 2026-05-04 13:43 | 33.68697 | -64.37485 | 38492 ft | 366 kts | 248° |
| 2026-05-04 13:43 | 33.67754 | -64.40319 | 37793 ft | 363 kts | 248° |
| 2026-05-04 13:43 | 33.66823 | -64.43113 | 37206 ft | 358 kts | 248° |
| 2026-05-04 13:44 | 33.65906 | -64.45865 | 36662 ft | 354 kts | 247° |
| 2026-05-04 13:44 | 33.64996 | -64.48592 | 36140 ft | 350 kts | 247° |
| 2026-05-04 13:44 | 33.64096 | -64.51287 | 35624 ft | 347 kts | 246° |
| 2026-05-04 13:44 | 33.63201 | -64.53965 | 35114 ft | 344 kts | 246° |
| 2026-05-04 13:45 | 33.62312 | -64.56619 | 34608 ft | 342 kts | 246° |
| 2026-05-04 13:45 | 33.61427 | -64.59264 | 34108 ft | 340 kts | 246° |
| 2026-05-04 13:45 | 33.60547 | -64.61888 | 33556 ft | 338 kts | 245° |
| 2026-05-04 13:45 | 33.59672 | -64.64499 | 33039 ft | 336 kts | 245° |
| 2026-05-04 13:46 | 33.58803 | -64.67089 | 32550 ft | 333 kts | 245° |
| 2026-05-04 13:46 | 33.57939 | -64.69657 | 32061 ft | 330 kts | 245° |
| 2026-05-04 13:46 | 33.56953 | -64.72104 | 31595 ft | 324 kts | 236° |
| 2026-05-04 13:46 | 33.55559 | -64.74222 | 31149 ft | 327 kts | 226° |
| 2026-05-04 13:47 | 33.53839 | -64.76086 | 30673 ft | 341 kts | 222° |
| 2026-05-04 13:47 | 33.52002 | -64.77958 | 30172 ft | 350 kts | 221° |
| 2026-05-04 13:47 | 33.50137 | -64.79835 | 29565 ft | 349 kts | 221° |
| 2026-05-04 13:47 | 33.48284 | -64.81700 | 29008 ft | 346 kts | 222° |
| 2026-05-04 13:48 | 33.46455 | -64.83550 | 28464 ft | 343 kts | 222° |
| 2026-05-04 13:48 | 33.44665 | -64.85368 | 27956 ft | 340 kts | 223° |
| 2026-05-04 13:48 | 33.42873 | -64.87193 | 27457 ft | 337 kts | 223° |
| 2026-05-04 13:48 | 33.41095 | -64.89008 | 26970 ft | 334 kts | 223° |
| 2026-05-04 13:49 | 33.39332 | -64.90808 | 26497 ft | 332 kts | 223° |
| 2026-05-04 13:49 | 33.37582 | -64.92596 | 26025 ft | 330 kts | 223° |
| 2026-05-04 13:49 | 33.35842 | -64.94373 | 25566 ft | 328 kts | 224° |
| 2026-05-04 13:49 | 33.34112 | -64.96140 | 25097 ft | 326 kts | 224° |
| 2026-05-04 13:50 | 33.32390 | -64.97897 | 24666 ft | 325 kts | 225° |
| 2026-05-04 13:50 | 33.30676 | -64.99644 | 24210 ft | 323 kts | 225° |
| 2026-05-04 13:50 | 33.28971 | -65.01384 | 23761 ft | 322 kts | 226° |
| 2026-05-04 13:50 | 33.27273 | -65.03114 | 23268 ft | 320 kts | 226° |
| 2026-05-04 13:51 | 33.25588 | -65.04832 | 22814 ft | 317 kts | 226° |
| 2026-05-04 13:51 | 33.23919 | -65.06531 | 22390 ft | 313 kts | 225° |
| 2026-05-04 13:51 | 33.22268 | -65.08210 | 22000 ft | 310 kts | 225° |
| 2026-05-04 13:51 | 33.20639 | -65.09867 | 21611 ft | 306 kts | 225° |
| 2026-05-04 13:52 | 33.17422 | -65.13138 | 20857 ft | 301 kts | 225° |